Time,TemperatureF,DewpointF,PressureIn,WindDirection,WindDirectionDegrees,WindSpeedMPH,WindSpeedGustMPH,Humidity,HourlyPrecipIn,Conditions,Clouds,dailyrainin,SoftwareType,DateUTC
2013-08-28 00:00:00,71.7,70.2,29.91,NNW,345,0.0,0.0,95,0.00,,,0.00,Wunderground v.1.15,2013-08-28 04:00:00,
2013-08-28 00:05:00,71.6,70.1,29.91,NNW,345,0.0,0.0,95,0.00,,,0.00,Wunderground v.1.15,2013-08-28 04:05:00,
2013-08-28 00:10:00,71.5,70.0,29.91,NNW,345,0.0,0.0,95,0.00,,,0.00,Wunderground v.1.15,2013-08-28 04:10:00,
2013-08-28 00:15:00,71.4,69.9,29.91,NNW,346,0.0,0.0,95,0.00,,,0.00,Wunderground v.1.15,2013-08-28 04:15:00,
2013-08-28 00:20:00,71.4,69.9,29.91,NNW,345,0.0,0.0,95,0.00,,,0.00,Wunderground v.1.15,2013-08-28 04:20:00,
2013-08-28 00:30:00,71.3,69.8,29.91,NNW,345,0.0,0.0,95,0.00,,,0.00,Wunderground v.1.15,2013-08-28 04:30:00,
2013-08-28 00:35:00,71.3,69.8,29.91,NNW,346,0.0,0.0,95,0.00,,,0.00,Wunderground v.1.15,2013-08-28 04:35:00,
2013-08-28 00:45:00,71.3,69.8,29.91,NNW,345,0.0,0.0,95,0.00,,,0.00,Wunderground v.1.15,2013-08-28 04:45:00,
2013-08-28 00:55:00,71.5,69.7,29.90,NNW,347,0.0,0.0,94,0.00,,,0.00,Wunderground v.1.15,2013-08-28 04:55:00,
2013-08-28 01:00:00,71.8,70.0,29.90,NNW,347,0.0,0.0,94,0.00,,,0.00,Wunderground v.1.15,2013-08-28 05:00:00,
2013-08-28 01:05:00,71.9,70.4,29.90,North,4,0.0,0.0,95,0.00,,,0.00,Wunderground v.1.15,2013-08-28 05:05:00,
2013-08-28 01:15:00,71.7,70.2,29.90,North,4,0.0,0.0,95,0.00,,,0.00,Wunderground v.1.15,2013-08-28 05:15:00,
2013-08-28 01:20:00,71.6,70.4,29.90,North,4,0.0,0.0,96,0.00,,,0.00,Wunderground v.1.15,2013-08-28 05:20:00,
2013-08-28 01:30:00,71.5,70.0,29.89,North,4,0.0,0.0,95,0.00,,,0.00,Wunderground v.1.15,2013-08-28 05:30:00,
2013-08-28 01:40:00,72.1,69.0,29.89,North,4,0.0,0.0,90,0.00,,,0.00,Wunderground v.1.15,2013-08-28 05:40:00,
2013-08-28 01:45:00,72.8,69.4,29.89,North,4,0.0,0.0,89,0.00,,,0.00,Wunderground v.1.15,2013-08-28 05:45:00,
2013-08-28 01:55:00,73.4,70.6,29.89,North,4,0.0,0.0,91,0.00,,,0.00,Wunderground v.1.15,2013-08-28 05:55:00,
2013-08-28 02:00:00,73.4,69.6,29.89,NE,51,0.0,0.0,88,0.00,,,0.00,Wunderground v.1.15,2013-08-28 06:00:00,
2013-08-28 02:05:00,73.5,69.4,29.89,NE,52,0.0,0.0,87,0.00,,,0.00,Wunderground v.1.15,2013-08-28 06:05:00,
2013-08-28 02:15:00,74.1,69.3,29.88,NE,52,0.0,0.0,85,0.00,,,0.00,Wunderground v.1.15,2013-08-28 06:15:00,
2013-08-28 02:25:00,74.6,69.4,29.89,NE,52,0.0,0.0,84,0.00,,,0.00,Wunderground v.1.15,2013-08-28 06:25:00,
2013-08-28 02:30:00,74.8,69.6,29.88,NE,51,0.0,0.0,84,0.00,,,0.00,Wunderground v.1.15,2013-08-28 06:30:00,
2013-08-28 02:40:00,74.7,70.6,29.88,NE,52,0.0,0.0,87,0.00,,,0.00,Wunderground v.1.15,2013-08-28 06:40:00,
2013-08-28 02:45:00,74.4,69.9,29.88,NE,51,0.0,0.0,86,0.00,,,0.00,Wunderground v.1.15,2013-08-28 06:45:00,
2013-08-28 02:55:00,73.9,69.8,29.87,NE,52,0.0,0.0,87,0.00,,,0.00,Wunderground v.1.15,2013-08-28 06:55:00,
2013-08-28 03:00:00,73.7,69.6,29.87,NE,52,0.0,0.0,87,0.00,,,0.00,Wunderground v.1.15,2013-08-28 07:00:00,
2013-08-28 03:05:00,73.5,70.4,29.87,NE,52,0.0,0.0,90,0.00,,,0.00,Wunderground v.1.15,2013-08-28 07:05:00,
2013-08-28 03:15:00,73.2,70.1,29.87,NE,51,0.0,0.0,90,0.00,,,0.00,Wunderground v.1.15,2013-08-28 07:15:00,
2013-08-28 03:20:00,73.1,69.3,29.87,NE,52,0.0,0.0,88,0.00,,,0.00,Wunderground v.1.15,2013-08-28 07:20:00,
2013-08-28 03:30:00,73.4,69.3,29.86,NE,52,0.0,0.0,87,0.00,,,0.00,Wunderground v.1.15,2013-08-28 07:30:00,
2013-08-28 03:35:00,73.5,69.7,29.86,NE,51,0.0,0.0,88,0.00,,,0.00,Wunderground v.1.15,2013-08-28 07:35:00,
2013-08-28 03:45:00,73.2,69.4,29.86,ESE,110,0.0,0.0,88,0.00,,,0.00,Wunderground v.1.15,2013-08-28 07:45:00,
2013-08-28 03:50:00,73.0,69.2,29.86,ESE,110,0.0,0.0,88,0.00,,,0.00,Wunderground v.1.15,2013-08-28 07:50:00,
2013-08-28 04:00:00,73.1,69.0,29.86,ESE,110,0.0,0.0,87,0.00,,,0.00,Wunderground v.1.15,2013-08-28 08:00:00,
2013-08-28 04:05:00,73.0,69.9,29.86,ESE,110,0.0,0.0,90,0.00,,,0.00,Wunderground v.1.15,2013-08-28 08:05:00,
2013-08-28 04:14:00,72.6,69.5,29.86,ESE,110,0.0,0.0,90,0.00,,,0.00,Wunderground v.1.15,2013-08-28 08:14:00,
2013-08-28 04:20:00,72.4,69.6,29.86,ESE,110,0.0,0.0,91,0.00,,,0.00,Wunderground v.1.15,2013-08-28 08:20:00,
2013-08-28 04:25:00,72.1,69.0,29.86,ESE,110,0.0,0.0,90,0.00,,,0.00,Wunderground v.1.15,2013-08-28 08:25:00,
2013-08-28 04:35:00,72.3,68.9,29.86,ESE,111,0.0,0.0,89,0.00,,,0.00,Wunderground v.1.15,2013-08-28 08:35:00,
2013-08-28 04:40:00,72.6,68.5,29.86,ESE,110,0.0,0.0,87,0.00,,,0.00,Wunderground v.1.15,2013-08-28 08:40:00,
2013-08-28 04:50:00,73.1,69.7,29.86,ESE,110,0.0,0.0,89,0.00,,,0.00,Wunderground v.1.15,2013-08-28 08:50:00,
2013-08-28 05:00:00,72.4,69.3,29.86,ESE,110,0.0,0.0,90,0.00,,,0.00,Wunderground v.1.15,2013-08-28 09:00:00,
2013-08-28 05:05:00,72.0,68.6,29.86,ESE,110,0.0,0.0,89,0.00,,,0.00,Wunderground v.1.15,2013-08-28 09:05:00,
2013-08-28 05:14:00,72.0,68.2,29.86,ESE,110,0.0,0.0,88,0.00,,,0.00,Wunderground v.1.15,2013-08-28 09:14:00,
2013-08-28 05:19:00,72.4,68.3,29.86,SSE,154,0.0,1.0,87,0.00,,,0.00,Wunderground v.1.15,2013-08-28 09:19:00,
2013-08-28 05:25:00,72.8,68.4,29.86,SSE,154,0.0,1.0,86,0.00,,,0.00,Wunderground v.1.15,2013-08-28 09:25:00,
2013-08-28 05:35:00,73.8,68.3,29.86,SSE,154,0.0,0.0,83,0.00,,,0.00,Wunderground v.1.15,2013-08-28 09:35:00,
2013-08-28 05:40:00,74.1,68.6,29.86,SSE,154,0.0,0.0,83,0.00,,,0.00,Wunderground v.1.15,2013-08-28 09:40:00,
2013-08-28 05:50:00,74.6,68.7,29.86,SSE,154,0.0,0.0,82,0.00,,,0.00,Wunderground v.1.15,2013-08-28 09:50:00,
2013-08-28 05:59:00,74.4,68.5,29.85,SSE,154,0.0,0.0,82,0.00,,,0.00,Wunderground v.1.15,2013-08-28 09:59:00,
2013-08-28 06:05:00,74.3,68.4,29.85,SSE,154,0.0,0.0,82,0.00,,,0.00,Wunderground v.1.15,2013-08-28 10:05:00,
2013-08-28 06:15:00,74.1,69.3,29.86,SSE,154,0.0,0.0,85,0.00,,,0.00,Wunderground v.1.15,2013-08-28 10:15:00,
2013-08-28 06:25:00,73.5,68.4,29.86,SSE,154,0.0,0.0,84,0.00,,,0.00,Wunderground v.1.15,2013-08-28 10:25:00,
2013-08-28 06:35:00,73.2,68.8,29.87,SSE,154,0.0,0.0,86,0.00,,,0.00,Wunderground v.1.15,2013-08-28 10:35:00,
2013-08-28 06:40:00,73.0,68.9,29.87,SSE,154,0.0,0.0,87,0.00,,,0.00,Wunderground v.1.15,2013-08-28 10:40:00,
2013-08-28 06:50:00,72.4,69.0,29.87,South,175,0.0,0.0,89,0.00,,,0.00,Wunderground v.1.15,2013-08-28 10:50:00,
2013-08-28 06:55:00,72.2,69.1,29.88,South,175,0.0,0.0,90,0.00,,,0.00,Wunderground v.1.15,2013-08-28 10:55:00,
2013-08-28 07:05:00,71.8,69.0,29.88,South,175,0.0,0.0,91,0.00,,,0.00,Wunderground v.1.15,2013-08-28 11:05:00,
2013-08-28 07:15:00,71.6,69.2,29.88,South,175,0.0,0.0,92,0.00,,,0.00,Wunderground v.1.15,2013-08-28 11:15:00,
2013-08-28 07:19:00,71.6,69.5,29.88,South,175,0.0,0.0,93,0.00,,,0.00,Wunderground v.1.15,2013-08-28 11:19:00,
2013-08-28 07:25:00,71.5,69.4,29.88,South,175,0.0,0.0,93,0.00,,,0.00,Wunderground v.1.15,2013-08-28 11:25:00,
2013-08-28 07:30:00,71.5,69.1,29.89,South,175,0.0,0.0,92,0.00,,,0.00,Wunderground v.1.15,2013-08-28 11:30:00,
2013-08-28 07:40:00,71.5,69.1,29.89,South,178,0.0,0.0,92,0.00,,,0.00,Wunderground v.1.15,2013-08-28 11:40:00,
2013-08-28 07:45:00,71.5,69.4,29.90,South,178,0.0,0.0,93,0.00,,,0.00,Wunderground v.1.15,2013-08-28 11:45:00,
2013-08-28 07:55:00,71.7,69.9,29.90,South,177,0.0,0.0,94,0.00,,,0.01,Wunderground v.1.15,2013-08-28 11:55:00,
2013-08-28 08:05:00,71.8,70.3,29.89,South,178,0.0,0.0,95,0.06,,,0.02,Wunderground v.1.15,2013-08-28 12:05:00,
2013-08-28 08:15:00,71.7,70.5,29.90,South,178,0.0,0.0,96,0.00,,,0.02,Wunderground v.1.15,2013-08-28 12:15:00,
2013-08-28 08:20:00,71.6,70.4,29.90,South,177,0.0,0.0,96,0.00,,,0.02,Wunderground v.1.15,2013-08-28 12:20:00,
2013-08-28 08:30:00,71.6,70.4,29.90,South,178,0.0,0.0,96,0.00,,,0.02,Wunderground v.1.15,2013-08-28 12:30:00,
2013-08-28 08:40:00,71.5,70.3,29.91,South,177,0.0,0.0,96,0.00,,,0.02,Wunderground v.1.15,2013-08-28 12:40:00,
2013-08-28 08:45:00,71.6,70.7,29.91,South,177,0.0,0.0,97,0.00,,,0.03,Wunderground v.1.15,2013-08-28 12:45:00,
2013-08-28 08:55:00,71.7,70.8,29.91,South,177,0.0,0.0,97,0.00,,,0.03,Wunderground v.1.15,2013-08-28 12:55:00,
2013-08-28 09:00:00,71.8,70.9,29.91,South,178,0.0,0.0,97,0.00,,,0.03,Wunderground v.1.15,2013-08-28 13:00:00,
2013-08-28 09:05:00,71.9,71.0,29.91,South,177,0.0,0.0,97,0.00,,,0.03,Wunderground v.1.15,2013-08-28 13:05:00,
2013-08-28 09:15:00,72.1,71.2,29.91,South,178,0.0,0.0,97,0.00,,,0.03,Wunderground v.1.15,2013-08-28 13:15:00,
2013-08-28 09:20:00,72.1,71.2,29.91,SSE,162,0.0,0.0,97,0.00,,,0.03,Wunderground v.1.15,2013-08-28 13:20:00,
2013-08-28 09:30:00,72.3,71.4,29.92,SSE,168,0.0,0.0,97,0.00,,,0.03,Wunderground v.1.15,2013-08-28 13:30:00,
2013-08-28 09:35:00,72.4,71.5,29.92,SSE,167,0.0,0.0,97,0.00,,,0.04,Wunderground v.1.15,2013-08-28 13:35:00,
2013-08-28 09:45:00,72.6,71.7,29.92,SSE,167,0.0,0.0,97,0.00,,,0.04,Wunderground v.1.15,2013-08-28 13:45:00,
2013-08-28 09:55:00,72.6,71.7,29.93,SSE,168,0.0,0.0,97,0.00,,,0.05,Wunderground v.1.15,2013-08-28 13:55:00,
2013-08-28 10:00:00,72.6,71.7,29.93,SSE,167,0.0,0.0,97,0.00,,,0.05,Wunderground v.1.15,2013-08-28 14:00:00,
2013-08-28 10:05:00,72.5,71.6,29.93,West,259,0.0,1.0,97,0.07,,,0.06,Wunderground v.1.15,2013-08-28 14:05:00,
2013-08-28 10:14:00,72.4,71.5,29.93,NW,326,0.0,1.0,97,0.16,,,0.09,Wunderground v.1.15,2013-08-28 14:14:00,
2013-08-28 10:20:00,72.3,71.4,29.93,SSE,155,0.0,0.0,97,0.10,,,0.10,Wunderground v.1.15,2013-08-28 14:20:00,
2013-08-28 10:30:00,72.1,71.2,29.93,SSE,163,0.0,0.0,97,0.33,,,0.14,Wunderground v.1.15,2013-08-28 14:30:00,
2013-08-28 10:35:00,72.0,71.1,29.92,SSE,162,0.0,0.0,97,0.12,,,0.15,Wunderground v.1.15,2013-08-28 14:35:00,
2013-08-28 10:44:00,71.8,71.2,29.92,SSE,163,0.0,0.0,98,0.08,,,0.16,Wunderground v.1.15,2013-08-28 14:44:00,
2013-08-28 10:50:00,71.8,71.2,29.92,SSE,162,0.0,0.0,98,0.07,,,0.17,Wunderground v.1.15,2013-08-28 14:50:00,
2013-08-28 11:00:00,71.7,71.1,29.92,SSE,163,0.0,0.0,98,0.06,,,0.17,Wunderground v.1.15,2013-08-28 15:00:00,
2013-08-28 11:05:00,71.6,70.7,29.91,SSE,163,0.0,0.0,97,0.04,,,0.17,Wunderground v.1.15,2013-08-28 15:05:00,
2013-08-28 11:14:00,71.5,70.6,29.92,SSE,163,0.0,0.0,97,0.00,,,0.17,Wunderground v.1.15,2013-08-28 15:14:00,
2013-08-28 11:20:00,71.6,71.0,29.92,SSE,163,0.0,0.0,98,0.00,,,0.17,Wunderground v.1.15,2013-08-28 15:20:00,
2013-08-28 11:25:00,71.6,71.0,29.91,SSE,163,0.0,0.0,98,0.00,,,0.18,Wunderground v.1.15,2013-08-28 15:25:00,
2013-08-28 11:35:00,71.8,71.2,29.90,SSE,164,0.0,0.0,98,0.00,,,0.18,Wunderground v.1.15,2013-08-28 15:35:00,
2013-08-28 11:40:00,71.9,71.3,29.90,South,178,0.0,0.0,98,0.00,,,0.18,Wunderground v.1.15,2013-08-28 15:40:00,
2013-08-28 11:50:00,72.1,71.5,29.89,South,177,0.0,0.0,98,0.00,,,0.18,Wunderground v.1.15,2013-08-28 15:50:00,
2013-08-28 11:55:00,72.1,71.5,29.89,South,177,0.0,0.0,98,0.00,,,0.18,Wunderground v.1.15,2013-08-28 15:55:00,
2013-08-28 12:05:00,72.5,72.2,29.88,South,177,0.0,0.0,99,0.00,,,0.18,Wunderground v.1.15,2013-08-28 16:05:00,
2013-08-28 12:15:00,72.7,72.4,29.89,South,178,0.0,0.0,99,0.00,,,0.18,Wunderground v.1.15,2013-08-28 16:15:00,
2013-08-28 12:25:00,73.0,72.4,29.89,SSE,167,0.0,0.0,98,0.00,,,0.18,Wunderground v.1.15,2013-08-28 16:25:00,
2013-08-28 12:30:00,73.0,72.4,29.89,SSE,167,0.0,0.0,98,0.00,,,0.18,Wunderground v.1.15,2013-08-28 16:30:00,
2013-08-28 12:40:00,72.9,72.0,29.88,SSE,166,0.0,0.0,97,0.00,,,0.19,Wunderground v.1.15,2013-08-28 16:40:00,
2013-08-28 12:49:00,72.9,72.0,29.87,SSE,166,0.0,0.0,97,0.06,,,0.20,Wunderground v.1.15,2013-08-28 16:49:00,
2013-08-28 12:55:00,72.9,72.0,29.87,SSE,166,0.0,0.0,97,0.05,,,0.20,Wunderground v.1.15,2013-08-28 16:55:00,
2013-08-28 13:05:00,72.7,71.8,29.87,SSE,167,0.0,0.0,97,0.00,,,0.20,Wunderground v.1.15,2013-08-28 17:05:00,
2013-08-28 13:15:00,72.7,72.1,29.87,SSE,166,0.0,0.0,98,0.00,,,0.20,Wunderground v.1.15,2013-08-28 17:15:00,
2013-08-28 13:25:00,72.7,72.1,29.87,SSE,166,0.0,0.0,98,0.00,,,0.20,Wunderground v.1.15,2013-08-28 17:25:00,
2013-08-28 13:30:00,72.8,72.2,29.87,SSE,166,0.0,0.0,98,0.00,,,0.20,Wunderground v.1.15,2013-08-28 17:30:00,
2013-08-28 13:40:00,72.8,72.2,29.86,SSE,166,0.0,0.0,98,0.00,,,0.20,Wunderground v.1.15,2013-08-28 17:40:00,
2013-08-28 13:45:00,72.9,72.3,29.86,SSE,166,0.0,0.0,98,0.00,,,0.20,Wunderground v.1.15,2013-08-28 17:45:00,
2013-08-28 13:55:00,73.1,72.5,29.86,SSE,167,0.0,0.0,98,0.00,,,0.20,Wunderground v.1.15,2013-08-28 17:55:00,
2013-08-28 14:05:00,73.3,72.7,29.86,SSE,167,0.0,0.0,98,0.00,,,0.20,Wunderground v.1.15,2013-08-28 18:05:00,
2013-08-28 14:15:00,73.4,72.8,29.85,SSE,167,0.0,0.0,98,0.00,,,0.20,Wunderground v.1.15,2013-08-28 18:15:00,
2013-08-28 14:20:00,73.4,72.8,29.85,SSE,167,0.0,0.0,98,0.00,,,0.20,Wunderground v.1.15,2013-08-28 18:20:00,
2013-08-28 14:30:00,73.5,72.9,29.85,SSE,167,0.0,0.0,98,0.00,,,0.20,Wunderground v.1.15,2013-08-28 18:30:00,
2013-08-28 14:35:00,73.5,72.9,29.84,SSE,167,0.0,0.0,98,0.00,,,0.20,Wunderground v.1.15,2013-08-28 18:35:00,
2013-08-28 14:45:00,73.6,73.0,29.84,SSE,166,0.0,0.0,98,0.00,,,0.20,Wunderground v.1.15,2013-08-28 18:45:00,
2013-08-28 14:50:00,73.7,73.1,29.84,SSE,167,0.0,0.0,98,0.00,,,0.20,Wunderground v.1.15,2013-08-28 18:50:00,
2013-08-28 15:00:00,73.8,73.2,29.83,South,172,0.0,0.0,98,0.00,,,0.20,Wunderground v.1.15,2013-08-28 19:00:00,
2013-08-28 15:05:00,73.7,73.1,29.83,South,172,0.0,0.0,98,0.00,,,0.20,Wunderground v.1.15,2013-08-28 19:05:00,
2013-08-28 15:14:00,73.7,73.1,29.83,South,171,0.0,0.0,98,0.00,,,0.20,Wunderground v.1.15,2013-08-28 19:14:00,
2013-08-28 15:20:00,73.8,73.2,29.83,South,171,0.0,0.0,98,0.00,,,0.20,Wunderground v.1.15,2013-08-28 19:20:00,
2013-08-28 15:25:00,73.9,73.3,29.82,South,171,0.0,0.0,98,0.00,,,0.20,Wunderground v.1.15,2013-08-28 19:25:00,
2013-08-28 15:35:00,74.1,73.5,29.82,South,171,0.0,0.0,98,0.00,,,0.20,Wunderground v.1.15,2013-08-28 19:35:00,
2013-08-28 15:40:00,74.2,73.6,29.82,South,172,0.0,0.0,98,0.00,,,0.20,Wunderground v.1.15,2013-08-28 19:40:00,
2013-08-28 15:50:00,74.4,73.5,29.81,South,185,0.0,0.0,97,0.00,,,0.20,Wunderground v.1.15,2013-08-28 19:50:00,
2013-08-28 16:00:00,74.4,73.5,29.81,South,185,0.0,0.0,97,0.00,,,0.20,Wunderground v.1.15,2013-08-28 20:00:00,
2013-08-28 16:05:00,74.4,73.5,29.81,South,185,0.0,0.0,97,0.00,,,0.20,Wunderground v.1.15,2013-08-28 20:05:00,
2013-08-28 16:15:00,74.5,73.6,29.81,South,185,0.0,0.0,97,0.00,,,0.20,Wunderground v.1.15,2013-08-28 20:15:00,
2013-08-28 16:25:00,74.5,73.6,29.80,South,185,0.0,0.0,97,0.00,,,0.20,Wunderground v.1.15,2013-08-28 20:25:00,
2013-08-28 16:35:00,74.4,73.5,29.81,South,185,0.0,0.0,97,0.00,,,0.20,Wunderground v.1.15,2013-08-28 20:35:00,
2013-08-28 16:40:00,74.3,73.4,29.81,South,185,0.0,0.0,97,0.00,,,0.20,Wunderground v.1.15,2013-08-28 20:40:00,
2013-08-28 16:50:00,74.1,73.2,29.83,South,185,0.0,0.0,97,0.00,,,0.21,Wunderground v.1.15,2013-08-28 20:50:00,
2013-08-28 16:55:00,74.0,73.4,29.83,South,185,0.0,0.0,98,0.00,,,0.21,Wunderground v.1.15,2013-08-28 20:55:00,
2013-08-28 17:05:00,73.8,73.2,29.82,South,185,0.0,0.0,98,0.73,,,0.47,Wunderground v.1.15,2013-08-28 21:05:00,
2013-08-28 17:15:00,73.5,72.9,29.80,South,185,0.0,0.0,98,0.16,,,0.51,Wunderground v.1.15,2013-08-28 21:15:00,
2013-08-28 17:25:00,73.3,72.7,29.81,South,186,0.0,0.0,98,0.15,,,0.54,Wunderground v.1.15,2013-08-28 21:25:00,
2013-08-28 17:34:00,73.2,72.9,29.80,South,186,0.0,0.0,99,0.20,,,0.60,Wunderground v.1.15,2013-08-28 21:34:00,
2013-08-28 17:40:00,73.1,72.8,29.79,South,186,0.0,0.0,99,0.07,,,0.60,Wunderground v.1.15,2013-08-28 21:40:00,
2013-08-28 17:50:00,72.9,72.6,29.79,South,185,0.0,0.0,99,0.00,,,0.60,Wunderground v.1.15,2013-08-28 21:50:00,
2013-08-28 17:55:00,72.9,72.6,29.78,South,185,0.0,0.0,99,0.00,,,0.60,Wunderground v.1.15,2013-08-28 21:55:00,
2013-08-28 18:05:00,72.9,72.6,29.78,South,185,0.0,0.0,99,0.00,,,0.60,Wunderground v.1.15,2013-08-28 22:05:00,
2013-08-28 18:15:00,72.9,72.6,29.79,South,185,0.0,0.0,99,0.00,,,0.60,Wunderground v.1.15,2013-08-28 22:15:00,
2013-08-28 18:20:00,72.9,72.6,29.78,South,185,0.0,0.0,99,0.00,,,0.60,Wunderground v.1.15,2013-08-28 22:20:00,
2013-08-28 18:30:00,72.9,72.6,29.79,South,185,0.0,0.0,99,0.00,,,0.60,Wunderground v.1.15,2013-08-28 22:30:00,
2013-08-28 18:40:00,72.9,72.6,29.79,South,185,0.0,0.0,99,0.00,,,0.60,Wunderground v.1.15,2013-08-28 22:40:00,
2013-08-28 18:45:00,73.0,72.7,29.79,South,185,0.0,0.0,99,0.00,,,0.60,Wunderground v.1.15,2013-08-28 22:45:00,
2013-08-28 18:55:00,73.1,72.8,29.79,South,185,0.0,0.0,99,0.00,,,0.60,Wunderground v.1.15,2013-08-28 22:55:00,
2013-08-28 19:05:00,73.1,72.8,29.79,South,185,0.0,0.0,99,0.00,,,0.60,Wunderground v.1.15,2013-08-28 23:05:00,
2013-08-28 19:15:00,73.1,72.8,29.79,South,185,0.0,0.0,99,0.00,,,0.60,Wunderground v.1.15,2013-08-28 23:15:00,
2013-08-28 19:25:00,73.1,73.1,29.79,South,185,0.0,0.0,100,0.00,,,0.60,Wunderground v.1.15,2013-08-28 23:25:00,
2013-08-28 19:34:00,73.1,73.1,29.78,South,185,0.0,0.0,100,0.00,,,0.60,Wunderground v.1.15,2013-08-28 23:34:00,
2013-08-28 19:40:00,73.1,73.1,29.79,South,185,0.0,0.0,100,0.00,,,0.60,Wunderground v.1.15,2013-08-28 23:40:00,
2013-08-28 19:50:00,73.1,73.1,29.79,South,185,0.0,0.0,100,0.00,,,0.60,Wunderground v.1.15,2013-08-28 23:50:00,
2013-08-28 19:55:00,73.1,73.1,29.79,South,185,0.0,0.0,100,0.00,,,0.60,Wunderground v.1.15,2013-08-28 23:55:00,
2013-08-28 20:05:00,73.1,73.1,29.79,South,185,0.0,0.0,100,0.00,,,0.60,Wunderground v.1.15,2013-08-29 00:05:00,
2013-08-28 20:15:00,73.1,73.1,29.79,South,185,0.0,0.0,100,0.00,,,0.61,Wunderground v.1.15,2013-08-29 00:15:00,
2013-08-28 20:25:00,73.0,73.0,29.79,South,185,0.0,0.0,100,0.00,,,0.61,Wunderground v.1.15,2013-08-29 00:25:00,
2013-08-28 20:30:00,73.0,73.0,29.79,South,185,0.0,0.0,100,0.00,,,0.61,Wunderground v.1.15,2013-08-29 00:30:00,
2013-08-28 20:40:00,72.9,72.9,29.80,South,185,0.0,0.0,100,0.00,,,0.61,Wunderground v.1.15,2013-08-29 00:40:00,
2013-08-28 20:50:00,72.7,72.7,29.81,South,185,0.0,0.0,100,0.00,,,0.61,Wunderground v.1.15,2013-08-29 00:50:00,
2013-08-28 20:55:00,72.7,72.7,29.81,South,185,0.0,0.0,100,0.00,,,0.61,Wunderground v.1.15,2013-08-29 00:55:00,
2013-08-28 21:05:00,72.8,72.8,29.81,South,185,0.0,0.0,100,0.00,,,0.61,Wunderground v.1.15,2013-08-29 01:05:00,
2013-08-28 21:15:00,72.8,72.8,29.81,South,185,0.0,0.0,100,0.00,,,0.61,Wunderground v.1.15,2013-08-29 01:15:00,
2013-08-28 21:25:00,72.8,72.8,29.81,South,185,0.0,0.0,100,0.00,,,0.61,Wunderground v.1.15,2013-08-29 01:25:00,
2013-08-28 21:30:00,72.8,72.8,29.81,South,185,0.0,0.0,100,0.00,,,0.61,Wunderground v.1.15,2013-08-29 01:30:00,
2013-08-28 21:40:00,72.8,72.8,29.81,South,185,0.0,0.0,100,0.00,,,0.61,Wunderground v.1.15,2013-08-29 01:40:00,
2013-08-28 21:45:00,72.7,72.7,29.81,South,185,0.0,0.0,100,0.00,,,0.61,Wunderground v.1.15,2013-08-29 01:45:00,
2013-08-28 21:55:00,72.8,72.8,29.81,South,185,0.0,0.0,100,0.00,,,0.61,Wunderground v.1.15,2013-08-29 01:55:00,
2013-08-28 22:05:00,72.8,72.8,29.81,South,185,0.0,0.0,100,0.00,,,0.61,Wunderground v.1.15,2013-08-29 02:05:00,
2013-08-28 22:15:00,72.7,72.7,29.80,South,185,0.0,0.0,100,0.00,,,0.61,Wunderground v.1.15,2013-08-29 02:15:00,
2013-08-28 22:25:00,72.7,72.7,29.80,South,185,0.0,0.0,100,0.00,,,0.61,Wunderground v.1.15,2013-08-29 02:25:00,
2013-08-28 22:30:00,72.6,72.6,29.79,South,185,0.0,0.0,100,0.00,,,0.61,Wunderground v.1.15,2013-08-29 02:30:00,
2013-08-28 22:40:00,72.2,72.2,29.79,South,185,0.0,0.0,100,0.00,,,0.61,Wunderground v.1.15,2013-08-29 02:40:00,
2013-08-28 22:50:00,72.0,72.0,29.78,South,185,0.0,0.0,100,0.00,,,0.61,Wunderground v.1.15,2013-08-29 02:50:00,
2013-08-28 22:55:00,72.0,72.0,29.78,South,185,0.0,0.0,100,0.00,,,0.61,Wunderground v.1.15,2013-08-29 02:55:00,
2013-08-28 23:05:00,71.9,71.9,29.78,South,185,0.0,0.0,100,0.00,,,0.61,Wunderground v.1.15,2013-08-29 03:05:00,
2013-08-28 23:15:00,71.8,71.8,29.78,South,185,0.0,0.0,100,0.00,,,0.61,Wunderground v.1.15,2013-08-29 03:15:00,
2013-08-28 23:25:00,71.7,71.7,29.79,South,185,0.0,0.0,100,0.00,,,0.61,Wunderground v.1.15,2013-08-29 03:25:00,
2013-08-28 23:30:00,71.7,71.7,29.78,South,185,0.0,0.0,100,0.00,,,0.61,Wunderground v.1.15,2013-08-29 03:30:00,
2013-08-28 23:40:00,71.6,71.6,29.79,South,185,0.0,0.0,100,0.00,,,0.61,Wunderground v.1.15,2013-08-29 03:40:00,
2013-08-28 23:45:00,71.6,71.6,29.78,South,185,0.0,0.0,100,0.00,,,0.61,Wunderground v.1.15,2013-08-29 03:45:00,
2013-08-28 23:55:00,71.7,71.7,29.78,West,267,0.0,0.0,100,0.00,,,0.61,Wunderground v.1.15,2013-08-29 03:55:00,